sensor_id;sensor_type;location;lat;lon;timestamp;pressure;altitude;pressure_sealevel;temperature;humidity
74045;BME280;62389;51.412;5.436;2023-02-04T00:00:08;103176.88;;;6.72;94.29
74045;BME280;62389;51.412;5.436;2023-02-04T00:02:34;103178.53;;;6.64;95.58
74045;BME280;62389;51.412;5.436;2023-02-04T00:04:59;103181.97;;;6.60;95.59
74045;BME280;62389;51.412;5.436;2023-02-04T00:07:25;103171.53;;;6.57;95.68
74045;BME280;62389;51.412;5.436;2023-02-04T00:09:50;103164.56;;;6.53;95.44
74045;BME280;62389;51.412;5.436;2023-02-04T00:12:16;103166.25;;;6.48;95.89
74045;BME280;62389;51.412;5.436;2023-02-04T00:14:41;103164.47;;;6.47;95.66
74045;BME280;62389;51.412;5.436;2023-02-04T00:17:07;103160.16;;;6.46;95.96
74045;BME280;62389;51.412;5.436;2023-02-04T00:19:34;103162.69;;;6.41;95.62
74045;BME280;62389;51.412;5.436;2023-02-04T00:22:00;103168.75;;;6.40;95.92
74045;BME280;62389;51.412;5.436;2023-02-04T00:24:25;103163.56;;;6.40;95.27
74045;BME280;62389;51.412;5.436;2023-02-04T00:26:51;103157.53;;;6.44;95.66
74045;BME280;62389;51.412;5.436;2023-02-04T00:29:16;103161.88;;;6.45;95.47
74045;BME280;62389;51.412;5.436;2023-02-04T00:31:41;103154.94;;;6.46;95.57
74045;BME280;62389;51.412;5.436;2023-02-04T00:34:07;103157.56;;;6.46;95.68
74045;BME280;62389;51.412;5.436;2023-02-04T00:36:32;103166.25;;;6.49;95.63
74045;BME280;62389;51.412;5.436;2023-02-04T00:38:57;103164.56;;;6.55;95.77
74045;BME280;62389;51.412;5.436;2023-02-04T00:41:23;103176.72;;;6.57;95.31
74045;BME280;62389;51.412;5.436;2023-02-04T00:43:48;103181.97;;;6.60;95.54
74045;BME280;62389;51.412;5.436;2023-02-04T00:46:14;103172.44;;;6.61;95.05
74045;BME280;62389;51.412;5.436;2023-02-04T00:48:39;103179.38;;;6.62;95.45
74045;BME280;62389;51.412;5.436;2023-02-04T00:51:04;103180.28;;;6.65;94.86
74045;BME280;62389;51.412;5.436;2023-02-04T00:53:30;103176.00;;;6.69;95.04
74045;BME280;62389;51.412;5.436;2023-02-04T00:55:55;103177.72;;;6.68;94.56
74045;BME280;62389;51.412;5.436;2023-02-04T00:58:20;103174.25;;;6.68;94.47
74045;BME280;62389;51.412;5.436;2023-02-04T01:00:46;103183.81;;;6.70;94.40
74045;BME280;62389;51.412;5.436;2023-02-04T01:03:11;103181.22;;;6.72;94.54
74045;BME280;62389;51.412;5.436;2023-02-04T01:05:37;103184.66;;;6.71;94.18
74045;BME280;62389;51.412;5.436;2023-02-04T01:08:02;103179.47;;;6.68;94.15
74045;BME280;62389;51.412;5.436;2023-02-04T01:10:27;103183.75;;;6.64;94.49
74045;BME280;62389;51.412;5.436;2023-02-04T01:12:53;103182.84;;;6.62;94.15
74045;BME280;62389;51.412;5.436;2023-02-04T01:15:18;103184.53;;;6.57;94.26
74045;BME280;62389;51.412;5.436;2023-02-04T01:17:44;103187.13;;;6.54;94.78
74045;BME280;62389;51.412;5.436;2023-02-04T01:20:09;103188.81;;;6.52;94.31
74045;BME280;62389;51.412;5.436;2023-02-04T01:22:35;103192.28;;;6.51;94.86
74045;BME280;62389;51.412;5.436;2023-02-04T01:25:00;103196.59;;;6.49;94.95
74045;BME280;62389;51.412;5.436;2023-02-04T01:27:26;103209.59;;;6.49;94.84
74045;BME280;62389;51.412;5.436;2023-02-04T01:29:51;103213.94;;;6.52;95.16
74045;BME280;62389;51.412;5.436;2023-02-04T01:32:17;103211.31;;;6.50;94.98
74045;BME280;62389;51.412;5.436;2023-02-04T01:34:42;103207.00;;;6.49;95.29
74045;BME280;62389;51.412;5.436;2023-02-04T01:37:07;103208.72;;;6.50;95.15
74045;BME280;62389;51.412;5.436;2023-02-04T01:39:33;103201.75;;;6.47;95.55
74045;BME280;62389;51.412;5.436;2023-02-04T01:41:58;103205.19;;;6.45;94.82
74045;BME280;62389;51.412;5.436;2023-02-04T01:44:26;103209.53;;;6.43;94.96
74045;BME280;62389;51.412;5.436;2023-02-04T01:46:52;103221.63;;;6.41;94.94
74045;BME280;62389;51.412;5.436;2023-02-04T01:49:17;103215.56;;;6.40;95.00
74045;BME280;62389;51.412;5.436;2023-02-04T01:51:43;103217.28;;;6.38;95.11
74045;BME280;62389;51.412;5.436;2023-02-04T01:54:11;103225.94;;;6.39;94.92
74045;BME280;62389;51.412;5.436;2023-02-04T01:56:38;103223.34;;;6.39;95.10
74045;BME280;62389;51.412;5.436;2023-02-04T01:59:10;103225.88;;;6.36;95.37
74045;BME280;62389;51.412;5.436;2023-02-04T02:01:42;103234.53;;;6.33;95.29
74045;BME280;62389;51.412;5.436;2023-02-04T02:04:09;103225.84;;;6.31;95.24
74045;BME280;62389;51.412;5.436;2023-02-04T02:06:35;103228.41;;;6.30;95.61
74045;BME280;62389;51.412;5.436;2023-02-04T02:09:02;103224.94;;;6.29;94.68
74045;BME280;62389;51.412;5.436;2023-02-04T02:11:28;103230.09;;;6.25;95.49
74045;BME280;62389;51.412;5.436;2023-02-04T02:13:54;103233.56;;;6.23;95.35
74045;BME280;62389;51.412;5.436;2023-02-04T02:16:20;103234.41;;;6.22;95.67
74045;BME280;62389;51.412;5.436;2023-02-04T02:18:45;103233.56;;;6.23;95.37
74045;BME280;62389;51.412;5.436;2023-02-04T02:21:13;103230.09;;;6.26;95.67
74045;BME280;62389;51.412;5.436;2023-02-04T02:26:12;103229.25;;;6.27;95.64
74045;BME280;62389;51.412;5.436;2023-02-04T02:28:38;103235.34;;;6.28;95.00
74045;BME280;62389;51.412;5.436;2023-02-04T02:31:03;103224.91;;;6.25;95.18
74045;BME280;62389;51.412;5.436;2023-02-04T02:33:29;103235.28;;;6.23;95.13
74045;BME280;62389;51.412;5.436;2023-02-04T02:35:54;103236.09;;;6.20;94.76
74045;BME280;62389;51.412;5.436;2023-02-04T02:38:20;103236.03;;;6.17;94.88
74045;BME280;62389;51.412;5.436;2023-02-04T02:40:46;103227.31;;;6.12;94.45
74045;BME280;62389;51.412;5.436;2023-02-04T02:43:21;103235.09;;;6.09;94.35
74045;BME280;62389;51.412;5.436;2023-02-04T02:45:48;103235.03;;;6.05;93.96
74045;BME280;62389;51.412;5.436;2023-02-04T02:48:14;103242.75;;;6.00;93.95
74045;BME280;62389;51.412;5.436;2023-02-04T02:50:40;103240.09;;;5.95;93.87
74045;BME280;62389;51.412;5.436;2023-02-04T02:53:14;103247.78;;;5.89;93.88
74045;BME280;62389;51.412;5.436;2023-02-04T02:55:41;103249.44;;;5.83;93.99
74045;BME280;62389;51.412;5.436;2023-02-04T02:58:27;103257.09;;;5.77;93.39
74045;BME280;62389;51.412;5.436;2023-02-04T03:00:55;103251.81;;;5.70;93.77
74045;BME280;62389;51.412;5.436;2023-02-04T03:03:24;103256.09;;;5.67;94.18
74045;BME280;62389;51.412;5.436;2023-02-04T03:05:54;103263.84;;;5.62;93.45
74045;BME280;62389;51.412;5.436;2023-02-04T03:08:22;103254.19;;;5.57;94.02
74045;BME280;62389;51.412;5.436;2023-02-04T03:10:47;103266.22;;;5.52;93.75
74045;BME280;62389;51.412;5.436;2023-02-04T03:13:14;103266.13;;;5.44;93.86
74045;BME280;62389;51.412;5.436;2023-02-04T03:15:41;103265.19;;;5.40;93.34
74045;BME280;62389;51.412;5.436;2023-02-04T03:18:07;103268.47;;;5.30;94.51
74045;BME280;62389;51.412;5.436;2023-02-04T03:20:33;103276.16;;;5.24;94.14
74045;BME280;62389;51.412;5.436;2023-02-04T03:22:59;103273.44;;;5.16;94.45
74045;BME280;62389;51.412;5.436;2023-02-04T03:25:25;103268.97;;;5.08;94.10
74045;BME280;62389;51.412;5.436;2023-02-04T03:27:53;103271.38;;;4.99;94.81
74045;BME280;62389;51.412;5.436;2023-02-04T03:30:20;103268.63;;;4.89;94.48
74045;BME280;62389;51.412;5.436;2023-02-04T03:32:45;103275.41;;;4.83;94.82
74045;BME280;62389;51.412;5.436;2023-02-04T03:35:11;103278.78;;;4.79;95.15
74045;BME280;62389;51.412;5.436;2023-02-04T03:37:37;103276.97;;;4.75;95.00
74045;BME280;62389;51.412;5.436;2023-02-04T03:40:02;103289.88;;;4.72;94.73
74045;BME280;62389;51.412;5.436;2023-02-04T03:42:28;103285.50;;;4.67;94.57
74045;BME280;62389;51.412;5.436;2023-02-04T03:44:54;103290.69;;;4.67;94.38
74045;BME280;62389;51.412;5.436;2023-02-04T03:47:19;103288.91;;;4.66;94.02
74045;BME280;62389;51.412;5.436;2023-02-04T03:49:44;103299.22;;;4.63;94.45
74045;BME280;62389;51.412;5.436;2023-02-04T03:52:10;103293.94;;;4.59;95.19
74045;BME280;62389;51.412;5.436;2023-02-04T03:54:35;103293.00;;;4.55;94.92
74045;BME280;62389;51.412;5.436;2023-02-04T03:57:00;103299.94;;;4.56;94.59
74045;BME280;62389;51.412;5.436;2023-02-04T03:59:26;103305.13;;;4.56;93.79
74045;BME280;62389;51.412;5.436;2023-02-04T04:01:51;103302.47;;;4.53;94.09
74045;BME280;62389;51.412;5.436;2023-02-04T04:04:17;103295.47;;;4.49;94.14
74045;BME280;62389;51.412;5.436;2023-02-04T04:06:42;103302.31;;;4.46;94.24
74045;BME280;62389;51.412;5.436;2023-02-04T04:09:08;103313.50;;;4.43;94.47
74045;BME280;62389;51.412;5.436;2023-02-04T04:11:33;103310.72;;;4.35;94.57
74045;BME280;62389;51.412;5.436;2023-02-04T04:13:58;103309.72;;;4.29;94.71
74045;BME280;62389;51.412;5.436;2023-02-04T04:16:25;103309.59;;;4.23;95.16
74045;BME280;62389;51.412;5.436;2023-02-04T04:18:51;103304.34;;;4.20;95.11
74045;BME280;62389;51.412;5.436;2023-02-04T04:21:16;103301.66;;;4.16;94.51
74045;BME280;62389;51.412;5.436;2023-02-04T04:23:41;103307.66;;;4.12;95.33
74045;BME280;62389;51.412;5.436;2023-02-04T04:26:07;103298.94;;;4.10;95.38
74045;BME280;62389;51.412;5.436;2023-02-04T04:28:32;103306.81;;;4.13;96.34
74045;BME280;62389;51.412;5.436;2023-02-04T04:30:57;103299.16;;;4.20;96.64
74045;BME280;62389;51.412;5.436;2023-02-04T04:33:23;103311.44;;;4.27;95.93
74045;BME280;62389;51.412;5.436;2023-02-04T04:35:48;103314.09;;;4.31;96.16
74045;BME280;62389;51.412;5.436;2023-02-04T04:38:13;103312.44;;;4.35;96.20
74045;BME280;62389;51.412;5.436;2023-02-04T04:40:39;103326.38;;;4.40;96.91
74045;BME280;62389;51.412;5.436;2023-02-04T04:43:04;103323.00;;;4.44;97.84
74045;BME280;62389;51.412;5.436;2023-02-04T04:45:29;103322.28;;;4.51;97.77
74045;BME280;62389;51.412;5.436;2023-02-04T04:47:55;103326.69;;;4.55;97.66
74045;BME280;62389;51.412;5.436;2023-02-04T04:50:20;103324.97;;;4.56;98.42
74045;BME280;62389;51.412;5.436;2023-02-04T04:52:46;103328.44;;;4.56;98.22
74045;BME280;62389;51.412;5.436;2023-02-04T04:55:11;103331.97;;;4.60;98.23
74045;BME280;62389;51.412;5.436;2023-02-04T04:57:37;103328.59;;;4.62;99.33
74045;BME280;62389;51.412;5.436;2023-02-04T05:00:04;103323.34;;;4.61;99.40
74045;BME280;62389;51.412;5.436;2023-02-04T05:02:29;103327.66;;;4.60;99.10
74045;BME280;62389;51.412;5.436;2023-02-04T05:04:54;103315.63;;;4.62;99.42
74045;BME280;62389;51.412;5.436;2023-02-04T05:07:20;103319.19;;;4.67;99.32
74045;BME280;62389;51.412;5.436;2023-02-04T05:09:45;103321.94;;;4.75;99.10
74045;BME280;62389;51.412;5.436;2023-02-04T05:12:10;103323.75;;;4.81;99.16
74045;BME280;62389;51.412;5.436;2023-02-04T05:14:36;103336.81;;;4.84;98.83
74045;BME280;62389;51.412;5.436;2023-02-04T05:17:01;103339.44;;;4.87;99.11
74045;BME280;62389;51.412;5.436;2023-02-04T05:19:27;103335.19;;;4.89;98.92
74045;BME280;62389;51.412;5.436;2023-02-04T05:21:52;103341.25;;;4.91;99.22
74045;BME280;62389;51.412;5.436;2023-02-04T05:24:17;103343.91;;;4.94;99.40
74045;BME280;62389;51.412;5.436;2023-02-04T05:26:43;103344.03;;;5.00;99.53
74045;BME280;62389;51.412;5.436;2023-02-04T05:29:08;103345.84;;;5.04;99.45
74045;BME280;62389;51.412;5.436;2023-02-04T05:31:34;103352.78;;;5.05;99.16
74045;BME280;62389;51.412;5.436;2023-02-04T05:34:00;103351.94;;;5.06;98.95
74045;BME280;62389;51.412;5.436;2023-02-04T05:36:26;103358.03;;;5.08;98.87
74045;BME280;62389;51.412;5.436;2023-02-04T05:38:51;103361.47;;;5.07;98.92
74045;BME280;62389;51.412;5.436;2023-02-04T05:41:16;103353.69;;;5.07;98.99
74045;BME280;62389;51.412;5.436;2023-02-04T05:43:42;103350.16;;;5.04;98.96
74045;BME280;62389;51.412;5.436;2023-02-04T05:46:07;103360.53;;;5.02;98.66
74045;BME280;62389;51.412;5.436;2023-02-04T05:48:33;103350.97;;;5.01;98.70
74045;BME280;62389;51.412;5.436;2023-02-04T05:50:58;103355.34;;;5.02;98.31
74045;BME280;62389;51.412;5.436;2023-02-04T05:53:23;103348.38;;;5.01;98.67
74045;BME280;62389;51.412;5.436;2023-02-04T05:55:49;103345.66;;;4.95;98.76
74045;BME280;62389;51.412;5.436;2023-02-04T05:58:14;103346.44;;;4.91;98.61
74045;BME280;62389;51.412;5.436;2023-02-04T06:00:39;103342.97;;;4.90;98.66
74045;BME280;62389;51.412;5.436;2023-02-04T06:03:05;103350.72;;;4.89;98.69
74045;BME280;62389;51.412;5.436;2023-02-04T06:05:30;103343.72;;;4.85;98.20
74045;BME280;62389;51.412;5.436;2023-02-04T06:07:56;103356.69;;;4.85;97.98
74045;BME280;62389;51.412;5.436;2023-02-04T06:10:21;103355.84;;;4.86;98.09
74045;BME280;62389;51.412;5.436;2023-02-04T06:12:47;103362.78;;;4.87;97.96
74045;BME280;62389;51.412;5.436;2023-02-04T06:15:13;103362.84;;;4.88;97.50
74045;BME280;62389;51.412;5.436;2023-02-04T06:17:38;103367.19;;;4.91;97.67
74045;BME280;62389;51.412;5.436;2023-02-04T06:20:05;103367.28;;;4.96;97.64
74045;BME280;62389;51.412;5.436;2023-02-04T06:22:30;103378.59;;;4.98;97.64
74045;BME280;62389;51.412;5.436;2023-02-04T06:24:56;103387.28;;;5.01;97.43
74045;BME280;62389;51.412;5.436;2023-02-04T06:27:21;103390.72;;;5.00;96.59
74045;BME280;62389;51.412;5.436;2023-02-04T06:29:53;103396.84;;;5.02;96.58
74045;BME280;62389;51.412;5.436;2023-02-04T06:32:19;103402.03;;;5.02;96.81
74045;BME280;62389;51.412;5.436;2023-02-04T06:34:44;103415.03;;;5.05;96.53
74045;BME280;62389;51.412;5.436;2023-02-04T06:37:10;103419.38;;;5.06;96.51
74045;BME280;62389;51.412;5.436;2023-02-04T06:39:37;103413.38;;;5.07;96.73
74045;BME280;62389;51.412;5.436;2023-02-04T06:42:02;103415.97;;;5.09;96.78
74045;BME280;62389;51.412;5.436;2023-02-04T06:44:27;103415.09;;;5.08;96.71
74045;BME280;62389;51.412;5.436;2023-02-04T06:46:53;103411.56;;;5.05;97.05
74045;BME280;62389;51.412;5.436;2023-02-04T06:49:18;103418.38;;;5.00;97.51
74045;BME280;62389;51.412;5.436;2023-02-04T06:51:44;103426.03;;;4.93;97.34
74045;BME280;62389;51.412;5.436;2023-02-04T06:54:09;103419.03;;;4.89;98.08
74045;BME280;62389;51.412;5.436;2023-02-04T06:56:35;103425.84;;;4.84;98.02
74045;BME280;62389;51.412;5.436;2023-02-04T06:59:00;103409.34;;;4.81;98.33
74045;BME280;62389;51.412;5.436;2023-02-04T07:01:25;103419.72;;;4.81;98.08
74045;BME280;62389;51.412;5.436;2023-02-04T07:03:51;103417.97;;;4.80;98.17
74045;BME280;62389;51.412;5.436;2023-02-04T07:06:16;103429.22;;;4.80;98.41
74045;BME280;62389;51.412;5.436;2023-02-04T07:08:41;103424.91;;;4.81;98.60
74045;BME280;62389;51.412;5.436;2023-02-04T07:11:07;103431.03;;;4.84;98.70
74045;BME280;62389;51.412;5.436;2023-02-04T07:13:32;103437.09;;;4.85;98.38
74045;BME280;62389;51.412;5.436;2023-02-04T07:15:57;103439.75;;;4.88;98.85
74045;BME280;62389;51.412;5.436;2023-02-04T07:18:23;103446.78;;;4.93;98.52
74045;BME280;62389;51.412;5.436;2023-02-04T07:20:48;103448.66;;;5.01;98.18
74045;BME280;62389;51.412;5.436;2023-02-04T07:23:14;103445.31;;;5.06;98.53
74045;BME280;62389;51.412;5.436;2023-02-04T07:25:39;103448.00;;;5.09;98.11
74045;BME280;62389;51.412;5.436;2023-02-04T07:28:04;103448.84;;;5.10;98.70
74045;BME280;62389;51.412;5.436;2023-02-04T07:30:33;103450.59;;;5.11;98.91
74045;BME280;62389;51.412;5.436;2023-02-04T07:32:58;103446.28;;;5.11;99.07
74045;BME280;62389;51.412;5.436;2023-02-04T07:35:24;103460.22;;;5.15;98.58
74045;BME280;62389;51.412;5.436;2023-02-04T07:37:49;103459.44;;;5.19;98.99
74045;BME280;62389;51.412;5.436;2023-02-04T07:40:15;103458.56;;;5.18;99.25
74045;BME280;62389;51.412;5.436;2023-02-04T07:42:40;103460.31;;;5.21;99.15
74045;BME280;62389;51.412;5.436;2023-02-04T07:45:06;103457.72;;;5.21;98.93
74045;BME280;62389;51.412;5.436;2023-02-04T07:47:32;103468.16;;;5.23;98.74
74045;BME280;62389;51.412;5.436;2023-02-04T07:49:57;103472.53;;;5.27;99.01
74045;BME280;62389;51.412;5.436;2023-02-04T07:52:23;103468.31;;;5.30;98.74
74045;BME280;62389;51.412;5.436;2023-02-04T07:54:49;103470.13;;;5.34;98.79
74045;BME280;62389;51.412;5.436;2023-02-04T07:57:16;103469.38;;;5.41;98.97
74045;BME280;62389;51.412;5.436;2023-02-04T07:59:41;103477.25;;;5.46;98.73
74045;BME280;62389;51.412;5.436;2023-02-04T08:02:08;103473.03;;;5.51;98.67
74045;BME280;62389;51.412;5.436;2023-02-04T08:04:34;103486.06;;;5.53;98.71
74045;BME280;62389;51.412;5.436;2023-02-04T08:06:59;103480.13;;;5.58;98.50
74045;BME280;62389;51.412;5.436;2023-02-04T08:09:25;103486.28;;;5.63;98.31
74045;BME280;62389;51.412;5.436;2023-02-04T08:11:51;103494.16;;;5.69;98.43
74045;BME280;62389;51.412;5.436;2023-02-04T08:14:17;103497.72;;;5.75;98.24
74045;BME280;62389;51.412;5.436;2023-02-04T08:16:42;103494.38;;;5.80;98.06
74045;BME280;62389;51.412;5.436;2023-02-04T08:19:07;103492.72;;;5.84;97.92
74045;BME280;62389;51.412;5.436;2023-02-04T08:21:33;103492.81;;;5.88;97.89
74045;BME280;62389;51.412;5.436;2023-02-04T08:23:58;103490.34;;;5.94;97.85
74045;BME280;62389;51.412;5.436;2023-02-04T08:26:23;103498.22;;;6.01;97.67
74045;BME280;62389;51.412;5.436;2023-02-04T08:28:49;103495.66;;;6.02;97.39
74045;BME280;62389;51.412;5.436;2023-02-04T08:31:14;103498.38;;;6.08;97.86
74045;BME280;62389;51.412;5.436;2023-02-04T08:33:40;103496.78;;;6.16;97.58
74045;BME280;62389;51.412;5.436;2023-02-04T08:36:06;103502.09;;;6.22;97.19
74045;BME280;62389;51.412;5.436;2023-02-04T08:38:31;103503.00;;;6.26;96.72
74045;BME280;62389;51.412;5.436;2023-02-04T08:40:57;103510.09;;;6.35;97.44
74045;BME280;62389;51.412;5.436;2023-02-04T08:43:24;103509.47;;;6.49;97.03
74045;BME280;62389;51.412;5.436;2023-02-04T08:45:49;103511.28;;;6.55;96.47
74045;BME280;62389;51.412;5.436;2023-02-04T08:48:15;103500.88;;;6.55;95.80
74045;BME280;62389;51.412;5.436;2023-02-04T08:50:40;103504.34;;;6.56;96.68
74045;BME280;62389;51.412;5.436;2023-02-04T08:53:05;103514.81;;;6.59;96.80
74045;BME280;62389;51.412;5.436;2023-02-04T08:55:31;103516.56;;;6.61;96.76
74045;BME280;62389;51.412;5.436;2023-02-04T08:57:56;103520.91;;;6.62;96.48
74045;BME280;62389;51.412;5.436;2023-02-04T09:00:23;103517.44;;;6.60;96.70
74045;BME280;62389;51.412;5.436;2023-02-04T09:02:49;103524.28;;;6.54;96.94
74045;BME280;62389;51.412;5.436;2023-02-04T09:05:14;103530.25;;;6.49;96.81
74045;BME280;62389;51.412;5.436;2023-02-04T09:07:39;103525.00;;;6.46;96.96
74045;BME280;62389;51.412;5.436;2023-02-04T09:10:05;103521.53;;;6.46;97.12
74045;BME280;62389;51.412;5.436;2023-02-04T09:12:30;103532.84;;;6.48;97.35
74045;BME280;62389;51.412;5.436;2023-02-04T09:14:56;103536.34;;;6.50;97.20
74045;BME280;62389;51.412;5.436;2023-02-04T09:17:21;103539.78;;;6.49;97.17
74045;BME280;62389;51.412;5.436;2023-02-04T09:19:46;103535.44;;;6.48;97.91
74045;BME280;62389;51.412;5.436;2023-02-04T09:22:12;103535.47;;;6.49;97.72
74045;BME280;62389;51.412;5.436;2023-02-04T09:24:37;103534.63;;;6.52;97.97
74045;BME280;62389;51.412;5.436;2023-02-04T09:27:03;103538.25;;;6.62;98.25
74045;BME280;62389;51.412;5.436;2023-02-04T09:29:28;103537.59;;;6.73;97.83
74045;BME280;62389;51.412;5.436;2023-02-04T09:31:53;103537.75;;;6.86;97.94
74045;BME280;62389;51.412;5.436;2023-02-04T09:34:19;103541.38;;;6.95;97.34
74045;BME280;62389;51.412;5.436;2023-02-04T09:36:44;103544.94;;;7.02;97.73
74045;BME280;62389;51.412;5.436;2023-02-04T09:39:09;103543.38;;;7.13;97.59
74045;BME280;62389;51.412;5.436;2023-02-04T09:41:37;103553.06;;;7.25;97.42
74045;BME280;62389;51.412;5.436;2023-02-04T09:44:04;103545.34;;;7.33;96.91
74045;BME280;62389;51.412;5.436;2023-02-04T09:46:34;103547.19;;;7.40;96.49
74045;BME280;62389;51.412;5.436;2023-02-04T09:48:59;103546.41;;;7.47;96.75
74045;BME280;62389;51.412;5.436;2023-02-04T09:51:28;103555.13;;;7.52;96.31
74045;BME280;62389;51.412;5.436;2023-02-04T09:54:00;103556.94;;;7.56;96.55
74045;BME280;62389;51.412;5.436;2023-02-04T09:56:27;103558.72;;;7.62;95.49
74045;BME280;62389;51.412;5.436;2023-02-04T09:58:53;103559.72;;;7.68;95.39
74045;BME280;62389;51.412;5.436;2023-02-04T10:01:19;103552.81;;;7.73;95.39
74045;BME280;62389;51.412;5.436;2023-02-04T10:03:46;103552.84;;;7.78;95.28
74045;BME280;62389;51.412;5.436;2023-02-04T10:06:17;103552.88;;;7.79;94.96
74045;BME280;62389;51.412;5.436;2023-02-04T10:08:44;103556.41;;;7.88;95.12
74045;BME280;62389;51.412;5.436;2023-02-04T10:11:11;103552.22;;;8.00;94.61
74045;BME280;62389;51.412;5.436;2023-02-04T10:13:42;103571.44;;;8.12;94.29
74045;BME280;62389;51.412;5.436;2023-02-04T10:16:17;103567.16;;;8.15;93.70
74045;BME280;62389;51.412;5.436;2023-02-04T10:18:44;103573.25;;;8.17;94.23
74045;BME280;62389;51.412;5.436;2023-02-04T10:23:42;103564.81;;;8.41;94.31
74045;BME280;62389;51.412;5.436;2023-02-04T10:26:12;103563.25;;;8.60;91.43
74045;BME280;62389;51.412;5.436;2023-02-04T10:28:38;103565.91;;;8.66;91.03
74045;BME280;62389;51.412;5.436;2023-02-04T10:31:05;103562.47;;;8.73;91.74
74045;BME280;62389;51.412;5.436;2023-02-04T10:33:33;103565.31;;;9.04;92.47
74045;BME280;62389;51.412;5.436;2023-02-04T10:35:59;103560.34;;;9.59;89.44
74045;BME280;62389;51.412;5.436;2023-02-04T10:38:25;103575.25;;;9.84;87.54
74045;BME280;62389;51.412;5.436;2023-02-04T10:41:04;103571.75;;;9.79;86.54
74045;BME280;62389;51.412;5.436;2023-02-04T10:43:30;103564.81;;;9.91;83.96
74045;BME280;62389;51.412;5.436;2023-02-04T10:46:01;103567.44;;;10.09;83.68
74045;BME280;62389;51.412;5.436;2023-02-04T10:48:27;103569.13;;;11.40;85.26
74045;BME280;62389;51.412;5.436;2023-02-04T10:50:55;103563.75;;;12.92;77.12
74045;BME280;62389;51.412;5.436;2023-02-04T10:53:22;103565.25;;;13.16;73.38
74045;BME280;62389;51.412;5.436;2023-02-04T10:56:24;103566.47;;;12.81;73.65
74045;BME280;62389;51.412;5.436;2023-02-04T10:58:50;103574.94;;;12.03;71.58
74045;BME280;62389;51.412;5.436;2023-02-04T11:01:16;103573.53;;;11.30;75.18
74045;BME280;62389;51.412;5.436;2023-02-04T11:03:42;103567.50;;;10.87;76.38
74045;BME280;62389;51.412;5.436;2023-02-04T11:06:13;103564.06;;;10.54;76.62
74045;BME280;62389;51.412;5.436;2023-02-04T11:08:41;103572.69;;;10.18;76.37
74045;BME280;62389;51.412;5.436;2023-02-04T11:11:16;103571.78;;;9.92;81.58
74045;BME280;62389;51.412;5.436;2023-02-04T11:18:57;103574.97;;;9.20;79.43
74045;BME280;62389;51.412;5.436;2023-02-04T11:21:42;103567.28;;;9.51;80.73
74045;BME280;62389;51.412;5.436;2023-02-04T11:26:46;103554.34;;;10.03;80.03
74045;BME280;62389;51.412;5.436;2023-02-04T11:31:49;103564.88;;;10.21;77.36
74045;BME280;62389;51.412;5.436;2023-02-04T11:39:31;103563.97;;;10.10;77.81
74045;BME280;62389;51.412;5.436;2023-02-04T11:41:58;103565.69;;;9.99;76.96
74045;BME280;62389;51.412;5.436;2023-02-04T11:44:23;103563.88;;;9.78;75.58
74045;BME280;62389;51.412;5.436;2023-02-04T11:46:54;103562.97;;;9.64;78.53
74045;BME280;62389;51.412;5.436;2023-02-04T11:49:21;103562.13;;;9.74;79.88
74045;BME280;62389;51.412;5.436;2023-02-04T11:51:48;103556.94;;;9.80;76.51
74045;BME280;62389;51.412;5.436;2023-02-04T11:54:15;103556.06;;;9.82;77.10
74045;BME280;62389;51.412;5.436;2023-02-04T11:56:44;103555.19;;;9.77;75.51
74045;BME280;62389;51.412;5.436;2023-02-04T11:59:11;103556.06;;;9.76;78.66
74045;BME280;62389;51.412;5.436;2023-02-04T12:01:37;103561.28;;;9.76;78.37
74045;BME280;62389;51.412;5.436;2023-02-04T12:04:05;103556.91;;;9.77;78.66
74045;BME280;62389;51.412;5.436;2023-02-04T12:06:33;103552.59;;;9.86;77.75
74045;BME280;62389;51.412;5.436;2023-02-04T12:12:00;103555.22;;;9.96;75.66
74045;BME280;62389;51.412;5.436;2023-02-04T12:14:34;103550.84;;;9.87;76.02
74045;BME280;62389;51.412;5.436;2023-02-04T12:16:59;103550.84;;;9.84;77.66
74045;BME280;62389;51.412;5.436;2023-02-04T12:19:25;103554.31;;;9.78;75.77
74045;BME280;62389;51.412;5.436;2023-02-04T12:21:51;103560.44;;;9.79;78.73
74045;BME280;62389;51.412;5.436;2023-02-04T12:24:16;103563.06;;;9.96;78.81
74045;BME280;62389;51.412;5.436;2023-02-04T12:26:42;103562.25;;;10.15;75.46
74045;BME280;62389;51.412;5.436;2023-02-04T12:29:07;103561.34;;;10.13;75.17
74045;BME280;62389;51.412;5.436;2023-02-04T12:31:34;103563.94;;;9.93;75.54
74045;BME280;62389;51.412;5.436;2023-02-04T12:34:00;103558.69;;;9.84;75.88
74045;BME280;62389;51.412;5.436;2023-02-04T12:36:25;103557.78;;;9.77;74.04
74045;BME280;62389;51.412;5.436;2023-02-04T12:38:52;103567.38;;;9.71;75.45
74045;BME280;62389;51.412;5.436;2023-02-04T12:41:18;103556.91;;;9.71;75.57
74045;BME280;62389;51.412;5.436;2023-02-04T12:43:44;103567.38;;;9.71;77.10
74045;BME280;62389;51.412;5.436;2023-02-04T12:46:10;103566.47;;;9.73;75.72
74045;BME280;62389;51.412;5.436;2023-02-04T12:48:35;103558.63;;;9.67;76.32
74045;BME280;62389;51.412;5.436;2023-02-04T12:51:05;103561.25;;;9.67;77.02
74045;BME280;62389;51.412;5.436;2023-02-04T12:53:30;103559.47;;;9.63;75.83
74045;BME280;62389;51.412;5.436;2023-02-04T12:55:56;103564.69;;;9.57;76.07
74045;BME280;62389;51.412;5.436;2023-02-04T12:58:21;103565.56;;;9.57;75.99
74045;BME280;62389;51.412;5.436;2023-02-04T13:00:46;103563.78;;;9.53;75.62
74045;BME280;62389;51.412;5.436;2023-02-04T13:03:12;103572.53;;;9.62;75.45
74045;BME280;62389;51.412;5.436;2023-02-04T13:05:37;103565.59;;;9.67;75.06
74045;BME280;62389;51.412;5.436;2023-02-04T13:08:03;103565.63;;;9.70;76.12
74045;BME280;62389;51.412;5.436;2023-02-04T13:10:28;103565.63;;;9.74;77.20
74045;BME280;62389;51.412;5.436;2023-02-04T13:12:54;103563.03;;;9.74;74.83
74045;BME280;62389;51.412;5.436;2023-02-04T13:15:19;103565.56;;;9.62;75.82
74045;BME280;62389;51.412;5.436;2023-02-04T13:17:44;103565.50;;;9.48;75.71